サンクトペテルブルク の空港の天気 - METARとTAF

プルコヴォ空港(サンクトペテルブルグ) ( ULLI / LED ) - ロシア サンクトペテルブルク
飛行場実況気象(Metar)
観測時間05/29 18:00 MSK (05/29 15:00 UTC)
風向・風速北西 6m/s
視程10km以上
天気現象
なし
気温17℃
湿度34%
気圧1022hPa
METARULLI 291500Z 32006MPS CAVOK 17/01 Q1022 R28R/090060 NOSIG
過去の天気等 Google飛行場航空写真 Wunderground天気予報

過去48時間のMETAR

飛行場予報(TAF)
発表時間: 5/29 16:56 MSK (5/29 13:56 UTC)
予報対象時間: 29日18時 MSK ~ 30日18時 MSK
風向・風速北北西 3m/s
視程10km以上
なし
29日18時 MSK ~ 29日21時 MSK に一時的に
風向・風速北西 6m/s
29日21時 MSK ~ 29日23時 MSK に徐々に
風向・風速北 3m/s
30日9時 MSK ~ 30日18時 MSK に一時的に
風向・風速北北東 6m/s 瞬間風速 12m/s
TAF ULLI 291356Z 2915/3015 34003MPS CAVOK
TEMPO 2915/2918 31006MPS
BECMG 2918/2920 01003MPS
TEMPO 3006/3015 02006G12MPS